Time;durP1;ratioP1;P1;durP2;ratioP2;P2;SDS_P1;SDS_P2;PMS_P1;PMS_P2;Temp;Humidity;BMP_temperature;BMP_pressure;BME280_temperature;BME280_humidity;BME280_pressure;Samples;Min_cycle;Max_cycle;Signal;HPM_P1;HPM_P2
2023/09/15 00:02:14;;;;;;;;;;;;;;;28.89;81.58;100855.03;4911983;28;70094;-40
2023/09/15 00:04:46;;;;;;;;;;;;;;;28.94;82.73;100849.81;4917052;28;66099;-38
2023/09/15 00:07:15;;;;;;;;;;;;;;;28.99;82.54;100856.47;4913083;28;70215;-36
2023/09/15 00:09:45;;;;;;;;;;;;;;;29.00;82.98;100866.22;4914636;28;66233;-39
2023/09/15 00:12:14;;;;;;;;;;;;;;;29.04;83.29;100865.63;4910381;28;70583;-38
2023/09/15 00:14:44;;;;;;;;;;;;;;;29.06;83.30;100868.97;4927435;28;66568;-38
2023/09/15 00:17:13;;;;;;;;;;;;;;;29.07;82.62;100870.63;4920599;28;69310;-39
2023/09/15 00:19:43;;;;;;;;;;;;;;;29.05;82.89;100872.69;4894524;28;66542;-38
2023/09/15 00:22:12;;;;;;;;;;;;;;;29.05;82.44;100888.06;4915710;28;70256;-37
2023/09/15 00:24:42;;;;;;;;;;;;;;;29.06;82.26;100895.97;4908061;28;66456;-36
2023/09/15 00:27:11;;;;;;;;;;;;;;;29.09;83.07;100886.63;4914870;28;71773;-37
2023/09/15 00:29:41;;;;;;;;;;;;;;;29.13;82.62;100885.97;4916310;28;67803;-37
2023/09/15 00:32:10;;;;;;;;;;;;;;;29.13;82.56;100893.25;4901095;28;70564;-37
2023/09/15 00:34:40;;;;;;;;;;;;;;;29.15;81.90;100888.50;4912886;28;67113;-38
2023/09/15 00:37:10;;;;;;;;;;;;;;;29.17;81.25;100898.06;4911604;28;69781;-36
2023/09/15 00:39:40;;;;;;;;;;;;;;;29.19;80.95;100900.53;4922732;28;66854;-37
2023/09/15 00:42:12;;;;;;;;;;;;;;;29.23;80.81;100912.59;4922057;28;69949;-37
2023/09/15 00:44:42;;;;;;;;;;;;;;;29.27;81.00;100911.13;4917180;28;65290;-37
2023/09/15 00:47:11;;;;;;;;;;;;;;;29.30;80.77;100918.81;4918537;28;70299;-36
2023/09/15 00:49:41;;;;;;;;;;;;;;;29.22;78.51;100910.91;4915978;28;66868;-37
2023/09/15 00:52:11;;;;;;;;;;;;;;;29.22;77.85;100927.13;4919615;28;70062;-36
2023/09/15 00:54:41;;;;;;;;;;;;;;;29.24;77.02;100929.63;4906614;28;66829;-36
2023/09/15 00:57:11;;;;;;;;;;;;;;;29.24;76.55;100930.44;4924553;28;70688;-37
2023/09/15 00:59:41;;;;;;;;;;;;;;;29.27;76.57;100940.00;4912546;28;65503;-37
2023/09/15 01:02:12;;;;;;;;;;;;;;;29.29;76.26;100933.38;4906660;28;69612;-36
2023/09/15 01:04:42;;;;;;;;;;;;;;;29.32;76.04;100937.53;4924287;28;66664;-36
2023/09/15 01:07:12;;;;;;;;;;;;;;;29.33;75.25;100939.19;4922202;28;70540;-38
2023/09/15 01:09:43;;;;;;;;;;;;;;;29.35;75.26;100937.94;4923030;28;66645;-39
2023/09/15 01:12:12;;;;;;;;;;;;;;;29.36;75.57;100939.63;4924245;28;70760;-36
2023/09/15 01:14:42;;;;;;;;;;;;;;;29.38;75.19;100937.50;4909378;28;65835;-38
2023/09/15 01:17:16;;;;;;;;;;;;;;;29.39;74.75;100939.19;4922299;28;70370;-36
2023/09/15 01:19:55;;;;;;;;;;;;;;;29.44;74.57;100940.44;4906303;28;66748;-36
2023/09/15 01:22:43;;;;;;;;;;;;;;;29.44;75.02;100943.94;4915129;28;70873;-36
2023/09/15 01:25:24;;;;;;;;;;;;;;;29.46;74.96;100943.75;4931758;28;65922;-37
2023/09/15 01:28:12;;;;;;;;;;;;;;;29.49;74.39;100943.34;4926898;28;70860;-36
2023/09/15 01:30:42;;;;;;;;;;;;;;;29.50;74.49;100940.41;4907967;28;66204;-37
2023/09/15 01:33:13;;;;;;;;;;;;;;;29.52;74.76;100951.03;4930751;28;69638;-36
2023/09/15 01:35:43;;;;;;;;;;;;;;;29.55;74.00;100953.31;4909641;28;67557;-38
2023/09/15 01:38:12;;;;;;;;;;;;;;;29.56;74.41;100949.53;4909616;28;70028;-37
2023/09/15 01:40:42;;;;;;;;;;;;;;;29.59;73.96;100959.97;4927913;28;66544;-37
2023/09/15 01:43:11;;;;;;;;;;;;;;;29.60;73.94;100956.22;4927277;28;69843;-37
2023/09/15 01:45:41;;;;;;;;;;;;;;;29.62;73.67;100964.94;4906465;28;66665;-37
2023/09/15 01:48:11;;;;;;;;;;;;;;;29.63;73.56;100953.13;4926194;28;69914;-38
2023/09/15 01:50:42;;;;;;;;;;;;;;;29.65;73.54;100961.84;4908124;28;66279;-38
2023/09/15 01:53:11;;;;;;;;;;;;;;;29.66;73.81;100952.69;4917170;28;69908;-36
2023/09/15 01:55:42;;;;;;;;;;;;;;;29.68;73.58;100947.09;4915141;28;66299;-37
2023/09/15 01:58:12;;;;;;;;;;;;;;;29.70;73.44;100951.25;4923144;28;70255;-38
2023/09/15 02:00:41;;;;;;;;;;;;;;;29.71;73.54;100936.69;4919910;28;66547;-38
2023/09/15 02:03:12;;;;;;;;;;;;;;;29.73;72.85;100950.00;4935421;28;70519;-39
2023/09/15 02:05:43;;;;;;;;;;;;;;;29.76;72.90;100949.56;4899440;28;66352;-39
2023/09/15 02:08:13;;;;;;;;;;;;;;;29.77;72.68;100941.22;4904565;28;70581;-35
2023/09/15 02:10:43;;;;;;;;;;;;;;;29.78;72.91;100953.72;4922650;28;65990;-36
2023/09/15 02:13:13;;;;;;;;;;;;;;;29.81;72.93;100952.44;4920335;28;70615;-36
2023/09/15 02:15:42;;;;;;;;;;;;;;;29.82;72.88;100943.31;4927936;28;66976;-37
2023/09/15 02:18:12;;;;;;;;;;;;;;;29.85;72.79;100940.19;4911115;28;70825;-41
2023/09/15 02:20:41;;;;;;;;;;;;;;;29.87;72.23;100939.97;4926919;28;66405;-40
2023/09/15 02:23:11;;;;;;;;;;;;;;;29.89;72.50;100927.06;4888303;28;70293;-38
2023/09/15 02:25:40;;;;;;;;;;;;;;;29.90;72.57;100920.63;4898624;28;66831;-36
2023/09/15 02:28:10;;;;;;;;;;;;;;;29.92;72.45;100922.06;4907498;28;71035;-37
2023/09/15 02:30:40;;;;;;;;;;;;;;;29.94;72.23;100916.44;4931154;28;67594;-37
2023/09/15 02:33:11;;;;;;;;;;;;;;;29.95;72.22;100929.75;4903481;28;69111;-37
2023/09/15 02:35:41;;;;;;;;;;;;;;;29.98;72.31;100925.81;4918289;28;66056;-38
2023/09/15 02:38:10;;;;;;;;;;;;;;;29.98;71.97;100932.03;4923298;28;70406;-39
2023/09/15 02:40:40;;;;;;;;;;;;;;;29.99;71.88;100928.28;4916982;28;66571;-36
2023/09/15 02:43:09;;;;;;;;;;;;;;;30.01;72.17;100933.50;4901187;28;69317;-38
2023/09/15 02:45:39;;;;;;;;;;;;;;;30.03;72.39;100934.94;4918343;28;66664;-37
2023/09/15 02:48:09;;;;;;;;;;;;;;;30.05;71.84;100926.59;4929365;28;69320;-37
2023/09/15 02:50:43;;;;;;;;;;;;;;;30.06;71.96;100920.97;4900322;28;65776;-38
2023/09/15 02:53:13;;;;;;;;;;;;;;;30.09;72.00;100925.13;4909119;28;70297;-38
2023/09/15 02:55:56;;;;;;;;;;;;;;;30.10;72.41;100915.97;4898887;28;67224;-38
2023/09/15 02:58:29;;;;;;;;;;;;;;;30.11;71.87;100931.13;4905239;28;70706;-37
2023/09/15 03:00:59;;;;;;;;;;;;;;;30.13;71.82;100918.25;4916270;28;66205;-37
2023/09/15 03:03:29;;;;;;;;;;;;;;;30.16;72.32;100923.22;4892026;28;70424;-36
2023/09/15 03:06:04;;;;;;;;;;;;;;;30.15;72.09;100924.28;4922838;28;66990;-37
2023/09/15 03:08:36;;;;;;;;;;;;;;;30.20;71.67;100923.59;4907905;28;69946;-38
2023/09/15 03:11:17;;;;;;;;;;;;;;;30.20;71.80;100919.06;4908271;28;65714;-37
2023/09/15 03:13:48;;;;;;;;;;;;;;;30.22;71.84;100916.97;4904908;28;70397;-38
2023/09/15 03:16:17;;;;;;;;;;;;;;;30.23;71.55;100918.66;4921178;28;66194;-38
2023/09/15 03:18:49;;;;;;;;;;;;;;;30.25;71.81;100921.94;4918345;28;70670;-37
2023/09/15 03:21:19;;;;;;;;;;;;;;;30.26;71.06;100910.09;4908260;28;66354;-37
2023/09/15 03:23:49;;;;;;;;;;;;;;;30.28;70.96;100904.47;4894553;28;70211;-37
2023/09/15 03:26:19;;;;;;;;;;;;;;;30.31;70.83;100903.19;4927500;28;66717;-38
2023/09/15 03:28:51;;;;;;;;;;;;;;;30.33;71.36;100909.22;4888616;28;70535;-37
2023/09/15 03:31:21;;;;;;;;;;;;;;;30.34;70.80;100905.47;4894548;28;65800;-37
2023/09/15 03:33:53;;;;;;;;;;;;;;;30.36;71.09;100909.63;4905711;28;70503;-38
2023/09/15 03:36:23;;;;;;;;;;;;;;;30.38;70.45;100912.13;4924791;28;65451;-38
2023/09/15 03:38:53;;;;;;;;;;;;;;;30.38;70.71;100901.31;4893788;28;70095;-36
2023/09/15 03:41:25;;;;;;;;;;;;;;;30.40;70.63;100904.63;4912846;28;66859;-37
2023/09/15 03:43:55;;;;;;;;;;;;;;;30.42;70.46;100894.41;4919270;28;70160;-37
2023/09/15 03:46:25;;;;;;;;;;;;;;;30.43;70.53;100906.91;4900901;28;67199;-37
2023/09/15 03:48:55;;;;;;;;;;;;;;;30.45;69.99;100888.53;4930746;28;70874;-37
2023/09/15 03:51:26;;;;;;;;;;;;;;;30.45;69.94;100888.53;4918541;28;65688;-38
2023/09/15 03:53:56;;;;;;;;;;;;;;;30.48;70.18;100882.72;4896600;28;68958;-37
2023/09/15 03:56:26;;;;;;;;;;;;;;;30.49;70.11;100873.53;4894492;28;66511;-37
2023/09/15 03:58:55;;;;;;;;;;;;;;;30.53;69.62;100869.34;4893579;28;70205;-37
2023/09/15 04:01:26;;;;;;;;;;;;;;;30.54;70.01;100865.59;4905059;28;66322;-36
2023/09/15 04:03:56;;;;;;;;;;;;;;;30.55;69.99;100861.00;4919434;28;70564;-36
2023/09/15 04:06:26;;;;;;;;;;;;;;;30.58;69.68;100864.09;4924383;28;66876;-37
2023/09/15 04:08:57;;;;;;;;;;;;;;;30.59;69.81;100862.22;4913815;28;68992;-37
2023/09/15 04:11:26;;;;;;;;;;;;;;;30.61;69.93;100865.53;4909716;28;65888;-37
2023/09/15 04:13:56;;;;;;;;;;;;;;;30.62;69.52;100854.50;4919215;28;69782;-38
2023/09/15 04:16:26;;;;;;;;;;;;;;;30.63;69.52;100861.56;4900657;28;66047;-36
2023/09/15 04:18:55;;;;;;;;;;;;;;;30.65;69.40;100862.19;4904041;28;70916;-36
2023/09/15 04:21:25;;;;;;;;;;;;;;;30.67;69.39;100853.84;4927614;28;66008;-37
2023/09/15 04:23:55;;;;;;;;;;;;;;;30.68;69.29;100861.75;4905519;28;70606;-37
2023/09/15 04:26:24;;;;;;;;;;;;;;;30.70;69.37;100862.38;4917508;28;66726;-38
2023/09/15 04:28:54;;;;;;;;;;;;;;;30.73;68.96;100858.41;4896315;28;69105;-39
2023/09/15 04:31:24;;;;;;;;;;;;;;;30.75;69.06;100855.44;4905293;28;66172;-37
2023/09/15 04:33:54;;;;;;;;;;;;;;;30.77;69.02;100847.94;4891148;28;70389;-38
2023/09/15 04:36:24;;;;;;;;;;;;;;;30.78;69.30;100836.06;4902404;28;66598;-40
2023/09/15 04:38:54;;;;;;;;;;;;;;;30.81;69.03;100843.75;4922258;28;70382;-37
2023/09/15 04:41:23;;;;;;;;;;;;;;;30.83;69.03;100841.66;4919470;28;65399;-38
2023/09/15 04:43:53;;;;;;;;;;;;;;;30.84;68.61;100830.63;4921579;28;70500;-37
2023/09/15 04:46:23;;;;;;;;;;;;;;;30.87;68.87;100821.19;4923608;28;65951;-39
2023/09/15 04:48:53;;;;;;;;;;;;;;;30.88;68.86;100815.56;4921218;28;70577;-38
2023/09/15 04:51:22;;;;;;;;;;;;;;;30.90;69.02;100823.50;4908350;28;65886;-38
2023/09/15 04:53:52;;;;;;;;;;;;;;;30.92;68.66;100813.25;4915522;28;69929;-40
2023/09/15 04:56:22;;;;;;;;;;;;;;;30.94;68.78;100811.16;4891714;28;66212;-37
2023/09/15 04:58:51;;;;;;;;;;;;;;;30.96;68.95;100808.25;4923437;28;70590;-37
2023/09/15 05:01:21;;;;;;;;;;;;;;;30.97;68.98;100810.72;4893700;28;66443;-37
2023/09/15 05:03:51;;;;;;;;;;;;;;;30.98;68.42;100790.72;4909861;28;70032;-38
2023/09/15 05:06:21;;;;;;;;;;;;;;;30.99;68.77;100786.94;4911032;28;66326;-38
2023/09/15 05:08:51;;;;;;;;;;;;;;;31.00;68.77;100769.63;4919511;28;70259;-39
2023/09/15 05:11:22;;;;;;;;;;;;;;;31.02;68.89;100775.66;4893899;28;65950;-36
2023/09/15 05:13:52;;;;;;;;;;;;;;;31.03;68.94;100766.47;4910897;28;69242;-39
2023/09/15 05:16:23;;;;;;;;;;;;;;;31.04;68.62;100773.56;4887073;28;65436;-39
2023/09/15 05:18:52;;;;;;;;;;;;;;;31.05;68.90;100758.94;4882868;29;70786;-39
2023/09/15 05:21:23;;;;;;;;;;;;;;;31.06;68.63;100763.31;4894766;28;66073;-40
2023/09/15 05:23:53;;;;;;;;;;;;;;;31.06;68.55;100751.66;4886309;29;69848;-37
2023/09/15 05:26:22;;;;;;;;;;;;;;;31.08;68.52;100755.78;4897542;28;66045;-39
2023/09/15 05:28:52;;;;;;;;;;;;;;;31.08;68.34;100742.25;4902100;28;69748;-37
2023/09/15 05:31:25;;;;;;;;;;;;;;;31.09;68.57;100737.66;4892759;28;65980;-37
2023/09/15 05:33:55;;;;;;;;;;;;;;;31.09;68.16;100738.50;4877075;28;69562;-37
2023/09/15 05:36:26;;;;;;;;;;;;;;;31.11;68.31;100736.38;4890569;28;65735;-38
2023/09/15 05:38:55;;;;;;;;;;;;;;;31.12;68.07;100740.75;4897657;28;70018;-37
2023/09/15 05:41:24;;;;;;;;;;;;;;;31.13;68.19;100734.28;4905896;28;66637;-38
2023/09/15 05:43:54;;;;;;;;;;;;;;;31.14;68.11;100744.03;4885391;29;69757;-37
2023/09/15 05:46:24;;;;;;;;;;;;;;;31.16;68.09;100728.41;4898069;28;66683;-38
2023/09/15 05:48:53;;;;;;;;;;;;;;;31.19;67.83;100739.84;4897919;28;69051;-38
2023/09/15 05:51:23;;;;;;;;;;;;;;;31.20;68.21;100738.78;4896440;28;66059;-37
2023/09/15 05:53:53;;;;;;;;;;;;;;;31.22;67.94;100720.41;4891900;28;70811;-38
2023/09/15 05:56:22;;;;;;;;;;;;;;;31.24;67.79;100718.31;4896302;28;65889;-37
2023/09/15 05:58:52;;;;;;;;;;;;;;;31.24;67.55;100712.91;4905032;28;70564;-38
2023/09/15 06:01:22;;;;;;;;;;;;;;;31.25;67.31;100709.13;4894457;28;66036;-38
2023/09/15 06:03:51;;;;;;;;;;;;;;;31.27;67.22;100712.44;4897802;28;70509;-37
2023/09/15 06:06:21;;;;;;;;;;;;;;;31.30;67.46;100706.56;4900603;28;66431;-37
2023/09/15 06:08:51;;;;;;;;;;;;;;;31.32;67.12;100715.31;4901629;28;70775;-37
2023/09/15 06:11:20;;;;;;;;;;;;;;;31.33;67.11;100706.09;4894549;28;66945;-38
2023/09/15 06:13:50;;;;;;;;;;;;;;;31.35;67.09;100702.13;4920032;28;70299;-36
2023/09/15 06:16:19;;;;;;;;;;;;;;;31.37;67.27;100696.47;4908338;28;66743;-36
2023/09/15 06:18:49;;;;;;;;;;;;;;;31.40;67.17;100701.47;4915265;28;70427;-38
2023/09/15 06:21:18;;;;;;;;;;;;;;;31.43;66.68;100706.44;4912014;28;65837;-36
2023/09/15 06:23:48;;;;;;;;;;;;;;;31.44;67.02;100686.41;4911342;28;70434;-38
2023/09/15 06:26:17;;;;;;;;;;;;;;;31.46;66.62;100678.88;4916790;28;66677;-37
2023/09/15 06:28:47;;;;;;;;;;;;;;;31.50;66.90;100671.91;4916705;28;69217;-36
2023/09/15 06:31:18;;;;;;;;;;;;;;;31.52;66.56;100671.69;4888780;28;65855;-36
2023/09/15 06:33:48;;;;;;;;;;;;;;;31.54;66.28;100656.88;4894872;28;69665;-37
2023/09/15 06:36:18;;;;;;;;;;;;;;;31.57;66.36;100661.81;4922198;28;65795;-37
2023/09/15 06:38:48;;;;;;;;;;;;;;;31.60;66.18;100663.25;4920667;28;69497;-37
2023/09/15 06:41:17;;;;;;;;;;;;;;;31.64;66.13;100653.59;4927495;28;65610;-37
2023/09/15 06:43:48;;;;;;;;;;;;;;;31.67;65.94;100653.13;4921986;28;69510;-38
2023/09/15 06:46:21;;;;;;;;;;;;;;;31.71;66.02;100653.50;4921747;28;65239;-37
2023/09/15 06:48:51;;;;;;;;;;;;;;;31.74;65.87;100637.59;4907415;28;70647;-36
2023/09/15 06:51:20;;;;;;;;;;;;;;;31.78;65.63;100637.94;4920041;28;66452;-36
2023/09/15 06:53:52;;;;;;;;;;;;;;;31.81;65.52;100634.75;4903489;28;69760;-38
2023/09/15 06:56:21;;;;;;;;;;;;;;;31.86;65.40;100628.66;4907126;28;65423;-38
2023/09/15 06:58:51;;;;;;;;;;;;;;;31.89;65.30;100625.47;4910884;28;69523;-37
2023/09/15 07:01:20;;;;;;;;;;;;;;;31.91;65.23;100621.50;4911452;28;65966;-38
2023/09/15 07:03:50;;;;;;;;;;;;;;;31.95;65.33;100617.25;4923614;28;70277;-37
2023/09/15 07:06:20;;;;;;;;;;;;;;;31.98;64.92;100605.09;4921754;28;66135;-38
2023/09/15 07:08:49;;;;;;;;;;;;;;;32.01;64.82;100608.19;4901672;28;69770;-38
2023/09/15 07:11:21;;;;;;;;;;;;;;;32.04;64.76;100604.19;4916837;28;66775;-38
2023/09/15 07:13:54;;;;;;;;;;;;;;;32.08;64.81;100593.69;4929083;28;70522;-38
2023/09/15 07:16:25;;;;;;;;;;;;;;;32.12;64.66;100594.84;4915998;28;66870;-38
2023/09/15 07:18:54;;;;;;;;;;;;;;;32.13;64.50;100593.81;4920946;28;69914;-38
2023/09/15 07:21:24;;;;;;;;;;;;;;;32.19;64.34;100579.28;4922207;28;66483;-36
2023/09/15 07:23:55;;;;;;;;;;;;;;;32.21;64.02;100583.41;4901321;28;70138;-46
2023/09/15 07:26:26;;;;;;;;;;;;;;;32.24;64.02;100576.69;4910945;28;66448;-38
2023/09/15 07:28:56;;;;;;;;;;;;;;;32.27;63.99;100577.03;4900433;28;70813;-38
2023/09/15 07:31:26;;;;;;;;;;;;;;;32.32;64.03;100570.91;4913155;28;66299;-36
2023/09/15 07:33:55;;;;;;;;;;;;;;;32.35;63.70;100567.72;4916580;28;70247;-37
2023/09/15 07:36:25;;;;;;;;;;;;;;;32.39;63.91;100566.16;4904926;28;66564;-37
2023/09/15 07:38:55;;;;;;;;;;;;;;;32.43;63.88;100556.47;4909487;28;69543;-36
2023/09/15 07:41:24;;;;;;;;;;;;;;;32.47;63.57;100565.00;4906033;28;67252;-38
2023/09/15 07:43:57;;;;;;;;;;;;;;;32.52;63.48;100567.00;4913614;28;70393;-40
2023/09/15 07:46:27;;;;;;;;;;;;;;;32.55;63.55;100561.09;4908445;28;65611;-38
2023/09/15 07:48:57;;;;;;;;;;;;;;;32.59;63.33;100556.81;4916487;28;70125;-38
2023/09/15 07:51:27;;;;;;;;;;;;;;;32.62;63.25;100557.16;4912406;28;67465;-39
2023/09/15 07:53:57;;;;;;;;;;;;;;;32.65;62.91;100555.84;4913142;28;70382;-37
2023/09/15 07:56:27;;;;;;;;;;;;;;;32.68;63.04;100560.81;4920523;28;65694;-37
2023/09/15 07:58:56;;;;;;;;;;;;;;;32.71;62.93;100560.34;4923066;28;69680;-36
2023/09/15 08:01:26;;;;;;;;;;;;;;;32.75;62.53;100539.78;4919392;28;66707;-37
2023/09/15 08:03:56;;;;;;;;;;;;;;;32.80;62.55;100545.31;4913647;28;70308;-37
2023/09/15 08:06:26;;;;;;;;;;;;;;;32.82;62.35;100545.91;4920282;28;65918;-37
2023/09/15 08:08:55;;;;;;;;;;;;;;;32.85;62.33;100556.28;4915088;28;70583;-36
2023/09/15 08:11:26;;;;;;;;;;;;;;;32.90;61.99;100552.81;4912405;28;66667;-38
2023/09/15 08:13:55;;;;;;;;;;;;;;;32.76;62.05;100529.72;4904991;28;70084;-39
2023/09/15 08:16:25;;;;;;;;;;;;;;;32.94;61.64;100549.41;4919713;28;66198;-37
2023/09/15 08:18:55;;;;;;;;;;;;;;;32.96;62.00;100551.88;4904975;28;68666;-37
2023/09/15 08:21:25;;;;;;;;;;;;;;;32.98;61.65;100566.03;4920485;28;66206;-36
2023/09/15 08:23:55;;;;;;;;;;;;;;;33.01;61.75;100545.72;4923040;28;69730;-37
2023/09/15 08:26:25;;;;;;;;;;;;;;;33.03;61.87;100546.31;4915749;28;65388;-36
2023/09/15 08:29:11;;;;;;;;;;;;;;;33.05;61.76;100538.75;4934399;28;69206;-38
2023/09/15 08:31:41;;;;;;;;;;;;;;;33.08;61.71;100549.13;4930985;28;65509;-36
2023/09/15 08:34:12;;;;;;;;;;;;;;;33.10;61.53;100547.00;4922999;28;69708;-39
2023/09/15 08:36:42;;;;;;;;;;;;;;;33.14;61.54;100540.00;4920377;28;66953;-37
2023/09/15 08:39:12;;;;;;;;;;;;;;;33.18;61.02;100527.56;4900042;28;69913;-37
2023/09/15 08:41:58;;;;;;;;;;;;;;;33.21;61.16;100531.69;4923055;28;66356;-37
2023/09/15 08:44:31;;;;;;;;;;;;;;;33.26;61.07;100529.88;4923819;28;69024;-36
2023/09/15 08:47:01;;;;;;;;;;;;;;;33.20;60.93;100509.13;4925677;28;65891;-36
2023/09/15 08:49:31;;;;;;;;;;;;;;;33.31;61.01;100527.25;4916997;28;70588;-37
2023/09/15 08:52:03;;;;;;;;;;;;;;;33.35;60.94;100519.47;4926354;28;66668;-37
2023/09/15 08:54:33;;;;;;;;;;;;;;;33.36;61.04;100527.34;4902893;28;69140;-37
2023/09/15 08:57:02;;;;;;;;;;;;;;;33.38;60.87;100524.41;4927921;28;66624;-36
2023/09/15 08:59:33;;;;;;;;;;;;;;;33.41;61.09;100525.81;4923539;28;69183;-38
2023/09/15 09:02:03;;;;;;;;;;;;;;;33.42;60.78;100528.25;4916422;28;65450;-38
2023/09/15 09:04:32;;;;;;;;;;;;;;;33.42;60.94;100530.16;4918177;28;70165;-38
2023/09/15 09:07:03;;;;;;;;;;;;;;;33.42;60.59;100528.25;4927965;28;66807;-36
2023/09/15 09:09:34;;;;;;;;;;;;;;;33.47;60.51;100524.81;4903139;28;70398;-39
2023/09/15 09:12:04;;;;;;;;;;;;;;;33.51;60.96;100537.66;4915220;28;66169;-37
2023/09/15 09:14:34;;;;;;;;;;;;;;;33.55;60.76;100527.16;4922091;28;70101;-37
2023/09/15 09:17:07;;;;;;;;;;;;;;;33.60;60.59;100532.69;4915845;28;65318;-37
2023/09/15 09:19:42;;;;;;;;;;;;;;;33.62;60.44;100527.81;4919974;28;70424;-38
2023/09/15 09:22:16;;;;;;;;;;;;;;;33.66;60.50;100523.53;4911693;28;67079;-38
2023/09/15 09:24:53;;;;;;;;;;;;;;;33.67;60.44;100519.72;4921117;28;69531;-38
2023/09/15 09:27:33;;;;;;;;;;;;;;;33.70;60.45;100530.09;4929165;28;65946;-39
2023/09/15 09:30:03;;;;;;;;;;;;;;;33.71;59.88;100525.50;4918677;28;70646;-38
2023/09/15 09:32:36;;;;;;;;;;;;;;;33.34;61.71;100521.31;4915474;28;66616;-38
2023/09/15 09:35:05;;;;;;;;;;;;;;;33.15;62.98;100528.06;4916288;28;70883;-43
2023/09/15 09:37:36;;;;;;;;;;;;;;;32.98;63.74;100521.72;4911956;28;66255;-38
2023/09/15 09:40:06;;;;;;;;;;;;;;;32.83;64.21;100533.97;4918904;28;70291;-38
2023/09/15 09:42:36;;;;;;;;;;;;;;;32.71;64.85;100533.19;4897963;28;66589;-41
2023/09/15 09:45:06;;;;;;;;;;;;;;;32.66;65.19;100543.94;4901496;28;70985;-40
2023/09/15 09:47:36;;;;;;;;;;;;;;;32.62;65.73;100548.19;4914264;28;66589;-41
2023/09/15 09:50:07;;;;;;;;;;;;;;;32.63;66.00;100553.41;4916199;28;69444;-37
2023/09/15 09:52:36;;;;;;;;;;;;;;;32.63;66.02;100552.56;4926128;28;66650;-39
2023/09/15 09:55:07;;;;;;;;;;;;;;;32.64;66.40;100548.78;4917237;28;69476;-40
2023/09/15 09:57:38;;;;;;;;;;;;;;;32.44;66.36;100519.28;4916376;28;66487;-39
2023/09/15 10:00:17;;;;;;;;;;;;;;;32.64;66.48;100563.19;4911499;28;69909;-39
2023/09/15 10:02:48;;;;;;;;;;;;;;;32.63;66.44;100558.00;4919694;28;66790;-39
2023/09/15 10:05:18;;;;;;;;;;;;;;;32.59;66.77;100562.25;4919604;28;69405;-38
2023/09/15 10:07:48;;;;;;;;;;;;;;;32.56;67.02;100571.69;4926490;28;66034;-38
2023/09/15 10:10:19;;;;;;;;;;;;;;;32.54;67.08;100575.72;4924167;28;69931;-38
2023/09/15 10:12:49;;;;;;;;;;;;;;;32.53;67.10;100574.06;4928593;28;67434;-38
2023/09/15 10:15:22;;;;;;;;;;;;;;;32.53;67.81;100576.78;4905561;28;69463;-39
2023/09/15 10:17:52;;;;;;;;;;;;;;;32.55;67.61;100582.81;4888760;28;65339;-42
2023/09/15 10:20:23;;;;;;;;;;;;;;;32.58;67.53;100587.78;4890318;28;70149;-41
2023/09/15 10:22:52;;;;;;;;;;;;;;;32.57;68.26;100596.97;4932446;28;67377;-40
2023/09/15 10:25:22;;;;;;;;;;;;;;;32.58;68.19;100599.44;4916333;28;69362;-42
2023/09/15 10:27:55;;;;;;;;;;;;;;;32.46;68.50;100585.91;4921556;28;66943;-38
2023/09/15 10:30:24;;;;;;;;;;;;;;;32.56;68.90;100609.72;4890934;28;69069;-40
2023/09/15 10:32:57;;;;;;;;;;;;;;;32.54;68.99;100619.16;4921173;28;66060;-39
2023/09/15 10:35:27;;;;;;;;;;;;;;;32.53;68.97;100629.19;4913158;28;70664;-39
2023/09/15 10:38:02;;;;;;;;;;;;;;;32.54;68.72;100628.16;4917201;28;65820;-40
2023/09/15 10:41:05;;;;;;;;;;;;;;;32.58;68.91;100631.22;4922109;28;69935;-38
2023/09/15 10:43:35;;;;;;;;;;;;;;;32.58;69.04;100628.50;4909302;28;66680;-40
2023/09/15 10:46:06;;;;;;;;;;;;;;;32.60;68.65;100640.78;4917975;28;69456;-39
2023/09/15 10:48:48;;;;;;;;;;;;;;;32.59;68.77;100643.72;4913261;28;67868;-42
2023/09/15 10:51:19;;;;;;;;;;;;;;;32.55;69.12;100648.00;4908851;28;69841;-37
2023/09/15 10:53:49;;;;;;;;;;;;;;;32.57;69.24;100648.56;4906888;28;66251;-38
2023/09/15 10:56:19;;;;;;;;;;;;;;;32.55;68.93;100648.81;4911871;28;69733;-41
2023/09/15 10:58:49;;;;;;;;;;;;;;;32.51;69.86;100644.06;4921396;28;66163;-41
2023/09/15 11:01:19;;;;;;;;;;;;;;;32.51;69.70;100644.06;4898273;28;69968;-39
2023/09/15 11:03:50;;;;;;;;;;;;;;;32.49;69.64;100656.00;4922072;28;65620;-38
2023/09/15 11:06:20;;;;;;;;;;;;;;;32.44;69.87;100664.00;4920399;28;69779;-40
2023/09/15 11:08:49;;;;;;;;;;;;;;;32.41;70.29;100669.09;4906836;28;66263;-39
2023/09/15 11:11:19;;;;;;;;;;;;;;;32.55;69.66;100669.72;4921343;28;69580;-38
2023/09/15 11:14:17;;;;;;;;;;;;;;;32.65;68.84;100669.91;4926639;28;67004;-39
2023/09/15 11:16:51;;;;;;;;;;;;;;;32.71;68.09;100671.72;4922955;28;69242;-39
2023/09/15 11:19:23;;;;;;;;;;;;;;;32.75;68.02;100669.34;4907650;28;66082;-39
2023/09/15 11:21:55;;;;;;;;;;;;;;;32.78;67.73;100672.38;4921121;28;43005;-38
2023/09/15 11:24:25;;;;;;;;;;;;;;;32.78;67.66;100669.69;4917399;28;66377;-39
2023/09/15 11:26:54;;;;;;;;;;;;;;;32.78;67.57;100675.09;4899140;28;70228;-38
2023/09/15 11:29:25;;;;;;;;;;;;;;;32.77;67.52;100670.75;4918760;28;65764;-40
2023/09/15 11:31:56;;;;;;;;;;;;;;;32.77;67.36;100684.34;4917717;28;70203;-41
2023/09/15 11:34:27;;;;;;;;;;;;;;;32.77;67.27;100683.50;4891736;28;65519;-38
2023/09/15 11:36:59;;;;;;;;;;;;;;;32.77;67.34;100695.19;4907243;28;69064;-38
2023/09/15 11:39:29;;;;;;;;;;;;;;;32.76;67.71;100693.53;4919191;28;65763;-39
2023/09/15 11:41:59;;;;;;;;;;;;;;;32.74;67.46;100695.69;4936520;28;69717;-37
2023/09/15 11:44:29;;;;;;;;;;;;;;;32.73;67.60;100699.44;4918307;28;66447;-38
2023/09/15 11:47:00;;;;;;;;;;;;;;;32.70;67.56;100711.59;4915465;28;69551;-37
2023/09/15 11:49:30;;;;;;;;;;;;;;;32.69;67.64;100714.56;4918288;28;66313;-38
2023/09/15 11:52:00;;;;;;;;;;;;;;;32.68;67.82;100723.75;4906113;28;69328;-39
2023/09/15 11:54:30;;;;;;;;;;;;;;;32.66;67.58;100734.06;4927866;28;66825;-38
2023/09/15 11:57:01;;;;;;;;;;;;;;;32.64;67.63;100736.16;4903909;28;68798;-37
2023/09/15 11:59:30;;;;;;;;;;;;;;;32.62;67.66;100741.00;4926021;28;68241;-38
2023/09/15 12:02:02;;;;;;;;;;;;;;;32.60;67.68;100743.97;4920785;28;70315;-38
2023/09/15 12:04:31;;;;;;;;;;;;;;;32.60;67.65;100754.00;4916341;28;66625;-38
2023/09/15 12:07:01;;;;;;;;;;;;;;;32.58;67.78;100756.13;4921292;28;69363;-39
2023/09/15 12:09:31;;;;;;;;;;;;;;;32.51;68.70;100760.84;4916335;28;67027;-37
2023/09/15 12:12:00;;;;;;;;;;;;;;;32.32;69.42;100758.19;4912374;28;70431;-39
2023/09/15 12:14:32;;;;;;;;;;;;;;;32.18;69.75;100756.72;4912909;28;65626;-40
2023/09/15 12:17:02;;;;;;;;;;;;;;;32.03;70.53;100749.03;4913949;28;70421;-37
2023/09/15 12:19:34;;;;;;;;;;;;;;;31.95;71.12;100758.31;4919750;28;66326;-37
2023/09/15 12:22:04;;;;;;;;;;;;;;;31.93;70.98;100768.59;4916559;28;69512;-38
2023/09/15 12:24:34;;;;;;;;;;;;;;;31.89;71.13;100770.06;4917460;28;65924;-39
2023/09/15 12:27:04;;;;;;;;;;;;;;;31.88;71.27;100773.00;4919323;28;70530;-39
2023/09/15 12:29:33;;;;;;;;;;;;;;;31.89;71.39;100780.91;4916502;28;66070;-39
2023/09/15 12:32:04;;;;;;;;;;;;;;;31.87;71.24;100776.75;4915273;28;70681;-39
2023/09/15 12:34:34;;;;;;;;;;;;;;;31.86;71.28;100775.94;4918679;28;66766;-38
2023/09/15 12:37:08;;;;;;;;;;;;;;;31.84;71.18;100778.03;4894389;28;69340;-39
2023/09/15 12:39:37;;;;;;;;;;;;;;;31.80;71.35;100785.81;4910902;28;66499;-37
2023/09/15 12:42:07;;;;;;;;;;;;;;;31.84;71.27;100783.47;4929345;28;70726;-38
2023/09/15 12:44:43;;;;;;;;;;;;;;;31.82;71.07;100780.19;4914796;28;66559;-38
2023/09/15 12:47:12;;;;;;;;;;;;;;;31.81;71.16;100783.94;4923860;28;70740;-40
2023/09/15 12:49:43;;;;;;;;;;;;;;;31.77;71.54;100789.00;4918917;28;66665;-37
2023/09/15 12:52:13;;;;;;;;;;;;;;;31.74;71.34;100791.34;4903736;28;70583;-38
2023/09/15 12:54:43;;;;;;;;;;;;;;;31.69;71.80;100797.44;4915359;28;66286;-38